createdAt,value
2019-02-23T00:01:24.196Z,4.87
2019-02-23T00:03:50.356Z,6.27
2019-02-23T00:06:16.518Z,5.16
2019-02-23T00:08:42.712Z,5.51
2019-02-23T00:11:08.868Z,5.65
2019-02-23T00:13:35.024Z,5.40
2019-02-23T00:16:01.318Z,6.05
2019-02-23T00:18:27.481Z,4.43
2019-02-23T00:20:53.732Z,3.98
2019-02-23T00:23:19.914Z,4.85
2019-02-23T00:25:46.171Z,4.57
2019-02-23T00:28:12.347Z,4.63
2019-02-23T00:30:38.547Z,3.96
2019-02-23T00:33:04.717Z,4.51
2019-02-23T00:35:30.983Z,3.84
2019-02-23T00:37:57.291Z,4.35
2019-02-23T00:40:23.556Z,3.84
2019-02-23T00:42:49.814Z,4.04
2019-02-23T00:45:15.997Z,4.85
2019-02-23T00:47:42.289Z,4.81
2019-02-23T00:50:08.449Z,5.22
2019-02-23T00:52:34.657Z,4.93
2019-02-23T00:55:00.911Z,5.27
2019-02-23T00:57:27.235Z,5.17
2019-02-23T00:59:53.420Z,4.70
2019-02-23T01:02:19.678Z,4.69
2019-02-23T01:04:45.843Z,4.56
2019-02-23T01:07:12.436Z,3.90
2019-02-23T01:09:38.602Z,4.62
2019-02-23T01:12:04.863Z,5.02
2019-02-23T01:14:31.062Z,5.16
2019-02-23T01:16:57.223Z,6.06
2019-02-23T01:19:23.385Z,3.83
2019-02-23T01:21:49.572Z,5.15
2019-02-23T01:24:15.738Z,5.29
2019-02-23T01:26:41.884Z,4.89
2019-02-23T01:29:08.186Z,5.59
2019-02-23T01:31:34.337Z,5.48
2019-02-23T01:34:00.599Z,5.72
2019-02-23T01:36:26.806Z,6.75
2019-02-23T01:38:53.066Z,6.54
2019-02-23T01:41:19.215Z,5.55
2019-02-23T01:43:45.515Z,6.01
2019-02-23T01:46:11.667Z,4.62
2019-02-23T01:48:37.823Z,4.53
2019-02-23T01:51:04.110Z,4.09
2019-02-23T01:53:30.422Z,4.11
2019-02-23T01:55:56.648Z,5.12
2019-02-23T01:58:22.855Z,4.57
2019-02-23T02:00:49.122Z,3.40
2019-02-23T02:03:15.384Z,5.54
2019-02-23T02:05:41.594Z,5.57
2019-02-23T02:08:07.857Z,4.51
2019-02-23T02:10:34.028Z,4.86
2019-02-23T02:13:00.631Z,4.50
2019-02-23T02:15:26.896Z,4.52
2019-02-23T02:17:54.909Z,5.21
2019-02-23T02:20:21.202Z,4.99
2019-02-23T02:22:47.381Z,5.26
2019-02-23T02:25:13.547Z,5.40
2019-02-23T02:27:39.747Z,3.66
2019-02-23T02:30:08.723Z,4.84
2019-02-23T02:32:34.875Z,4.51
2019-02-23T02:35:01.244Z,4.72
2019-02-23T02:37:27.401Z,3.47
2019-02-23T02:39:53.550Z,3.53
2019-02-23T02:42:19.743Z,4.83
2019-02-23T02:44:45.904Z,3.69
2019-02-23T02:47:12.160Z,3.42
2019-02-23T02:49:38.348Z,3.06
2019-02-23T02:52:04.509Z,3.37
2019-02-23T02:54:30.667Z,4.33
2019-02-23T02:56:56.978Z,5.23
2019-02-23T02:59:23.335Z,3.68
2019-02-23T03:01:49.596Z,4.80
2019-02-23T03:04:15.892Z,4.28
2019-02-23T03:06:42.050Z,4.41
2019-02-23T03:09:10.137Z,4.35
2019-02-23T03:11:36.429Z,4.12
2019-02-23T03:14:03.086Z,3.57
2019-02-23T03:16:29.252Z,4.96
2019-02-23T03:18:55.566Z,5.92
2019-02-23T03:21:21.709Z,5.97
2019-02-23T03:23:47.864Z,5.05
2019-02-23T03:26:14.071Z,5.35
2019-02-23T03:28:40.226Z,4.94
2019-02-23T03:31:06.399Z,5.25
2019-02-23T03:33:32.912Z,5.19
2019-02-23T03:35:59.176Z,4.96
2019-02-23T03:38:25.341Z,4.74
2019-02-23T03:40:51.536Z,5.90
2019-02-23T03:43:17.793Z,5.23
2019-02-23T03:45:43.964Z,5.27
2019-02-23T03:48:10.275Z,5.43
2019-02-23T03:50:48.404Z,6.13
2019-02-23T03:53:04.729Z,6.22
2019-02-23T03:55:30.914Z,5.80
2019-02-23T03:57:57.176Z,6.26
2019-02-23T04:00:23.388Z,6.43
2019-02-23T04:02:49.580Z,5.94
2019-02-23T04:05:15.740Z,6.33
2019-02-23T04:07:41.907Z,5.90
2019-02-23T04:10:08.096Z,6.43
2019-02-23T04:12:34.260Z,6.82
2019-02-23T04:15:00.468Z,7.35
2019-02-23T04:17:26.860Z,6.79
2019-02-23T04:19:53.310Z,7.09
2019-02-23T04:22:19.465Z,7.28
2019-02-23T04:24:45.653Z,7.09
2019-02-23T04:27:11.807Z,7.19
2019-02-23T04:29:37.968Z,7.30
2019-02-23T04:32:04.154Z,6.07
2019-02-23T04:34:30.426Z,6.32
2019-02-23T04:36:56.581Z,6.21
2019-02-23T04:39:22.783Z,6.40
2019-02-23T04:41:49.163Z,5.95
2019-02-23T04:44:15.306Z,5.36
2019-02-23T04:46:41.596Z,4.34
2019-02-23T04:49:07.743Z,4.28
2019-02-23T04:51:33.900Z,5.28
2019-02-23T04:54:00.164Z,3.99
2019-02-23T04:56:26.287Z,3.71
2019-02-23T04:58:52.449Z,4.97
2019-02-23T05:01:18.701Z,4.63
2019-02-23T05:03:44.968Z,3.69
2019-02-23T05:06:11.128Z,4.57
2019-02-23T05:08:37.422Z,4.77
2019-02-23T05:11:03.584Z,5.65
2019-02-23T05:13:34.866Z,5.25
2019-02-23T05:16:01.049Z,5.86
2019-02-23T05:18:27.207Z,5.58
2019-02-23T05:20:53.488Z,6.07
2019-02-23T05:23:19.777Z,5.44
2019-02-23T05:25:45.937Z,6.27
2019-02-23T05:28:12.197Z,6.30
2019-02-23T05:30:38.395Z,5.85
2019-02-23T05:33:04.547Z,5.84
2019-02-23T05:35:30.839Z,4.10
2019-02-23T05:37:57.013Z,4.38
2019-02-23T05:40:23.178Z,4.51
2019-02-23T05:43:00.113Z,3.98
2019-02-23T05:45:17.437Z,3.73
2019-02-23T05:47:43.601Z,4.45
2019-02-23T05:50:09.754Z,4.13
2019-02-23T05:52:35.948Z,4.35
2019-02-23T05:55:02.098Z,4.47
2019-02-23T05:57:28.258Z,6.08
2019-02-23T05:59:54.451Z,4.47
2019-02-23T06:02:21.517Z,4.30
2019-02-23T06:04:47.807Z,4.88
2019-02-23T06:07:13.997Z,4.88
2019-02-23T06:09:40.154Z,5.84
2019-02-23T06:12:06.317Z,5.18
2019-02-23T06:14:32.528Z,4.72
2019-02-23T06:16:58.687Z,4.44
2019-02-23T06:19:24.864Z,5.90
2019-02-23T06:21:54.055Z,5.41
2019-02-23T06:24:19.219Z,5.74
2019-02-23T06:26:45.378Z,4.99
2019-02-23T06:29:11.774Z,5.10
2019-02-23T06:31:37.917Z,5.23
2019-02-23T06:34:15.606Z,5.68
2019-02-23T06:36:32.284Z,6.86
2019-02-23T06:38:58.451Z,5.76
2019-02-23T06:41:24.627Z,5.03
2019-02-23T06:43:50.820Z,4.30
2019-02-23T06:46:16.977Z,3.49
2019-02-23T06:48:43.148Z,3.80
2019-02-23T06:51:09.445Z,4.46
2019-02-23T06:53:35.612Z,5.02
2019-02-23T06:56:01.872Z,5.65
2019-02-23T06:58:28.166Z,5.14
2019-02-23T07:00:54.329Z,4.74
2019-02-23T07:03:20.533Z,5.32
2019-02-23T07:05:47.521Z,5.97
2019-02-23T07:08:13.685Z,6.31
2019-02-23T07:10:39.846Z,6.15
2019-02-23T07:13:06.149Z,6.47
2019-02-23T07:15:32.438Z,5.61
2019-02-23T07:17:58.895Z,6.04
2019-02-23T07:20:25.524Z,8.35
2019-02-23T07:22:51.717Z,6.30
2019-02-23T07:25:17.994Z,7.86
2019-02-23T07:27:44.172Z,8.80
2019-02-23T07:30:12.636Z,9.20
2019-02-23T07:32:38.839Z,6.96
2019-02-23T07:35:05.936Z,9.48
2019-02-23T07:37:32.096Z,8.77
2019-02-23T07:39:58.259Z,8.15
2019-02-23T07:42:24.442Z,6.78
2019-02-23T07:44:50.752Z,6.71
2019-02-23T07:47:16.914Z,6.66
2019-02-23T07:49:43.214Z,6.47
2019-02-23T07:52:09.375Z,5.66
2019-02-23T07:54:35.636Z,4.59
2019-02-23T07:57:01.924Z,4.45
2019-02-23T07:59:28.085Z,5.12
2019-02-23T08:01:54.240Z,7.77
2019-02-23T08:04:20.477Z,7.12
2019-02-23T08:06:46.630Z,6.61
2019-02-23T08:09:12.878Z,6.33
2019-02-23T08:11:39.078Z,4.46
2019-02-23T08:14:05.338Z,5.00
2019-02-23T08:16:31.605Z,5.14
2019-02-23T08:18:59.158Z,4.80
2019-02-23T08:21:25.565Z,6.07
2019-02-23T08:23:51.732Z,5.49
2019-02-23T08:26:18.034Z,5.78
2019-02-23T08:28:44.227Z,5.90
2019-02-23T08:31:10.398Z,5.78
2019-02-23T08:33:36.723Z,6.99
2019-02-23T08:36:02.867Z,6.90
2019-02-23T08:38:29.357Z,6.28
2019-02-23T08:40:55.685Z,4.16
2019-02-23T08:43:21.854Z,4.25
2019-02-23T08:45:48.123Z,3.97
2019-02-23T08:48:14.859Z,4.44
2019-02-23T08:50:41.138Z,4.58
2019-02-23T08:53:07.307Z,4.96
2019-02-23T08:55:33.514Z,5.25
2019-02-23T08:57:59.787Z,5.40
2019-02-23T09:00:25.943Z,5.66
2019-02-23T09:02:52.157Z,5.49
2019-02-23T09:05:18.451Z,6.64
2019-02-23T09:07:44.723Z,5.27
2019-02-23T09:10:12.328Z,5.73
2019-02-23T09:12:38.788Z,6.45
2019-02-23T09:15:06.165Z,7.32
2019-02-23T09:17:50.671Z,7.09
2019-02-23T09:20:28.275Z,9.79
2019-02-23T09:22:44.923Z,8.83
2019-02-23T09:25:11.198Z,5.49
2019-02-23T09:27:37.342Z,6.57
2019-02-23T09:30:06.575Z,6.82
2019-02-23T09:32:32.733Z,5.65
2019-02-23T09:34:58.892Z,4.57
2019-02-23T09:37:25.209Z,4.59
2019-02-23T09:39:51.373Z,4.81
2019-02-23T09:42:17.532Z,5.04
2019-02-23T09:44:43.820Z,5.58
2019-02-23T09:47:09.980Z,5.76
2019-02-23T09:49:36.231Z,7.37
2019-02-23T09:52:02.525Z,9.67
2019-02-23T09:54:30.663Z,8.52
2019-02-23T09:56:57.030Z,7.52
2019-02-23T09:59:23.248Z,5.81
2019-02-23T10:01:49.411Z,7.53
2019-02-23T10:04:17.376Z,5.92
2019-02-23T10:06:45.525Z,6.85
2019-02-23T10:09:11.683Z,6.73
2019-02-23T10:11:37.966Z,6.04
2019-02-23T10:14:04.275Z,5.96
2019-02-23T10:16:30.542Z,6.92
2019-02-23T10:18:56.811Z,7.22
2019-02-23T10:21:23.510Z,6.38
2019-02-23T10:23:49.778Z,5.83
2019-02-23T10:26:18.786Z,6.61
2019-02-23T10:28:44.950Z,5.57
2019-02-23T10:31:11.118Z,4.70
2019-02-23T10:33:47.187Z,5.93
2019-02-23T10:36:05.478Z,5.46
2019-02-23T10:38:31.704Z,5.63
2019-02-23T10:40:59.756Z,6.91
2019-02-23T10:43:26.202Z,8.24
2019-02-23T10:45:52.477Z,7.53
2019-02-23T10:48:18.737Z,7.15
2019-02-23T10:50:44.955Z,7.12
2019-02-23T10:53:11.143Z,5.76
2019-02-23T10:55:37.427Z,6.54
2019-02-23T10:58:03.731Z,9.41
2019-02-23T11:00:30.093Z,7.71
2019-02-23T11:02:57.329Z,6.53
2019-02-23T11:05:23.646Z,7.96
2019-02-23T11:07:49.981Z,7.10
2019-02-23T11:10:17.648Z,6.88
2019-02-23T11:12:43.956Z,7.80
2019-02-23T11:15:11.829Z,7.82
2019-02-23T11:17:38.207Z,6.29
2019-02-23T11:20:06.211Z,6.94
2019-02-23T11:22:32.368Z,8.34
2019-02-23T11:24:58.544Z,7.47
2019-02-23T11:27:24.743Z,8.51
2019-02-23T11:29:50.900Z,8.54
2019-02-23T11:32:17.060Z,7.69
2019-02-23T11:34:43.366Z,8.80
2019-02-23T11:37:09.551Z,7.27
2019-02-23T11:39:35.837Z,7.97
2019-02-23T11:42:02.027Z,7.57
2019-02-23T11:44:28.199Z,8.04
2019-02-23T11:47:01.028Z,7.82
2019-02-23T11:49:23.184Z,7.35
2019-02-23T11:51:50.317Z,6.61
2019-02-23T11:54:16.597Z,7.01
2019-02-23T11:56:42.797Z,6.95
2019-02-23T11:59:08.957Z,6.88
2019-02-23T12:01:35.116Z,6.66
2019-02-23T12:04:01.412Z,6.52
2019-02-23T12:06:27.569Z,7.12
2019-02-23T12:08:57.179Z,8.17
2019-02-23T12:11:22.872Z,8.63
2019-02-23T12:13:49.055Z,6.72
2019-02-23T12:16:15.212Z,6.21
2019-02-23T12:18:41.819Z,6.73
2019-02-23T12:21:12.349Z,6.44
2019-02-23T12:23:38.512Z,5.45
2019-02-23T12:26:04.803Z,5.52
2019-02-23T12:28:31.059Z,6.64
2019-02-23T12:30:57.210Z,7.36
2019-02-23T12:33:23.403Z,6.45
2019-02-23T12:35:49.579Z,6.70
2019-02-23T12:38:15.731Z,8.03
2019-02-23T12:40:42.043Z,8.65
2019-02-23T12:43:08.304Z,8.92
2019-02-23T12:45:34.474Z,8.15
2019-02-23T12:48:00.666Z,7.95
2019-02-23T12:50:26.832Z,8.00
2019-02-23T12:52:53.123Z,8.15
2019-02-23T12:55:19.322Z,7.58
2019-02-23T12:57:45.488Z,6.75
2019-02-23T13:00:37.131Z,6.53
2019-02-23T13:03:03.293Z,6.48
2019-02-23T13:05:29.448Z,6.98
2019-02-23T13:07:55.743Z,7.62
2019-02-23T13:10:21.951Z,6.87
2019-02-23T13:13:10.004Z,5.71
2019-02-23T13:16:02.238Z,6.00
2019-02-23T13:18:50.067Z,5.75
2019-02-23T13:21:35.064Z,7.68
2019-02-23T13:24:28.187Z,7.59
2019-02-23T13:27:11.214Z,6.80
2019-02-23T13:29:57.723Z,6.03
2019-02-23T13:32:27.485Z,7.24
2019-02-23T13:35:15.075Z,7.39
2019-02-23T13:37:50.426Z,7.34
2019-02-23T13:40:38.716Z,6.88
2019-02-23T13:43:31.628Z,6.25
2019-02-23T13:46:04.319Z,7.32
2019-02-23T13:48:42.559Z,9.53
2019-02-23T13:51:36.219Z,9.17
2019-02-23T13:54:39.116Z,9.23
2019-02-23T13:57:21.182Z,7.31
2019-02-23T13:59:50.960Z,6.77
2019-02-23T14:02:36.055Z,6.92
2019-02-23T14:05:14.673Z,6.93
2019-02-23T14:07:47.170Z,5.87
2019-02-23T14:10:43.857Z,5.71
2019-02-23T14:13:30.547Z,4.56
2019-02-23T14:16:21.507Z,5.42
2019-02-23T14:19:06.822Z,5.56
2019-02-23T14:22:01.534Z,6.13
2019-02-23T14:25:07.468Z,7.59
2019-02-23T14:28:11.886Z,6.05
2019-02-23T14:30:59.957Z,6.59
2019-02-23T14:33:53.569Z,6.52
2019-02-23T14:37:08.692Z,5.69
2019-02-23T14:40:13.103Z,7.06
2019-02-23T14:43:12.143Z,6.45
2019-02-23T14:46:15.740Z,6.82
2019-02-23T14:48:48.515Z,6.47
2019-02-23T14:51:34.898Z,7.24
2019-02-23T14:54:16.581Z,7.57
2019-02-23T14:56:56.647Z,6.59
2019-02-23T14:59:26.441Z,6.06
2019-02-23T15:02:15.787Z,5.87
2019-02-23T15:05:00.698Z,5.81
2019-02-23T15:07:53.437Z,5.50
2019-02-23T15:10:42.344Z,6.52
2019-02-23T15:13:23.619Z,6.61
2019-02-23T15:16:17.086Z,6.66
2019-02-23T15:18:51.663Z,5.96
2019-02-23T15:21:26.655Z,6.97
2019-02-23T15:24:11.954Z,7.89
2019-02-23T15:26:59.921Z,7.08
2019-02-23T15:29:38.873Z,7.42
2019-02-23T15:32:47.011Z,7.54
2019-02-23T15:35:25.665Z,7.65
2019-02-23T15:38:01.446Z,7.33
2019-02-23T15:40:37.471Z,6.39
2019-02-23T15:43:17.750Z,5.71
2019-02-23T15:46:24.588Z,5.96
2019-02-23T15:48:57.515Z,7.11
2019-02-23T15:51:24.893Z,6.38
2019-02-23T15:53:52.817Z,5.82
2019-02-23T15:56:19.013Z,6.16
2019-02-23T15:58:45.282Z,7.31
2019-02-23T16:01:14.131Z,7.30
2019-02-23T16:03:40.321Z,8.01
2019-02-23T16:06:06.491Z,6.72
2019-02-23T16:08:32.745Z,6.21
2019-02-23T16:10:59.069Z,5.84
2019-02-23T16:13:25.459Z,6.77
2019-02-23T16:15:51.683Z,7.66
2019-02-23T16:18:17.968Z,6.78
2019-02-23T16:20:44.264Z,6.97
2019-02-23T16:23:10.640Z,6.89
2019-02-23T16:25:38.550Z,6.22
2019-02-23T16:28:04.878Z,6.74
2019-02-23T16:30:31.037Z,6.33
2019-02-23T16:32:57.233Z,6.72
2019-02-23T16:35:23.392Z,7.16
2019-02-23T16:37:49.652Z,6.70
2019-02-23T16:40:15.851Z,7.37
2019-02-23T16:42:42.114Z,6.98
2019-02-23T16:45:08.374Z,6.51
2019-02-23T16:47:34.577Z,6.94
2019-02-23T16:50:02.673Z,6.97
2019-02-23T16:52:28.832Z,7.22
2019-02-23T16:54:56.824Z,6.53
2019-02-23T16:57:22.978Z,6.38
2019-02-23T16:59:49.153Z,6.57
2019-02-23T17:02:15.633Z,6.58
2019-02-23T17:04:53.048Z,6.82
2019-02-23T17:07:09.886Z,6.54
2019-02-23T17:09:36.230Z,6.48
2019-02-23T17:12:02.393Z,6.22
2019-02-23T17:14:28.762Z,5.82
2019-02-23T17:16:55.002Z,5.83
2019-02-23T17:19:21.279Z,6.00
2019-02-23T17:21:47.436Z,5.81
2019-02-23T17:24:13.638Z,5.91
2019-02-23T17:26:39.912Z,5.79
2019-02-23T17:29:06.076Z,6.69
2019-02-23T17:31:32.273Z,6.47
2019-02-23T17:33:58.546Z,6.66
2019-02-23T17:36:24.705Z,6.32
2019-02-23T17:38:51.000Z,5.87
2019-02-23T17:41:17.167Z,6.17
2019-02-23T17:43:43.337Z,7.02
2019-02-23T17:46:09.672Z,6.65
2019-02-23T17:48:35.951Z,6.24
2019-02-23T17:51:02.115Z,6.70
2019-02-23T17:53:28.308Z,6.11
2019-02-23T17:55:54.578Z,6.47
2019-02-23T17:58:20.728Z,5.55
2019-02-23T18:00:47.023Z,6.33
2019-02-23T18:03:13.176Z,6.30
2019-02-23T18:05:39.338Z,5.85
2019-02-23T18:08:05.524Z,5.41
2019-02-23T18:10:31.920Z,6.32
2019-02-23T18:12:58.089Z,6.52
2019-02-23T18:15:24.284Z,6.44
2019-02-23T18:17:51.406Z,5.76
2019-02-23T18:20:18.469Z,5.90
2019-02-23T18:22:44.661Z,5.67
2019-02-23T18:25:10.931Z,6.14
2019-02-23T18:27:37.195Z,5.68
2019-02-23T18:30:12.348Z,7.03
2019-02-23T18:32:34.631Z,5.61
2019-02-23T18:35:00.918Z,5.79
2019-02-23T18:37:27.091Z,5.94
2019-02-23T18:39:53.261Z,5.83
2019-02-23T18:42:19.415Z,5.32
2019-02-23T18:44:45.610Z,6.20
2019-02-23T18:47:11.768Z,6.46
2019-02-23T18:49:37.925Z,6.11
2019-02-23T18:52:04.116Z,5.90
2019-02-23T18:54:30.271Z,6.78
2019-02-23T18:56:56.542Z,7.22
2019-02-23T18:59:22.737Z,5.67
2019-02-23T19:01:48.902Z,5.26
2019-02-23T19:04:15.163Z,6.51
2019-02-23T19:06:41.553Z,6.02
2019-02-23T19:09:07.829Z,6.27
2019-02-23T19:11:33.985Z,5.60
2019-02-23T19:14:00.184Z,6.48
2019-02-23T19:16:26.485Z,6.19
2019-02-23T19:18:52.766Z,5.99
2019-02-23T19:21:19.065Z,5.60
2019-02-23T19:23:45.693Z,5.91
2019-02-23T19:26:11.846Z,6.95
2019-02-23T19:28:43.211Z,7.01
2019-02-23T19:31:06.092Z,6.68
2019-02-23T19:33:32.253Z,6.38
2019-02-23T19:35:58.439Z,5.34
2019-02-23T19:38:24.604Z,6.66
2019-02-23T19:40:50.868Z,6.77
2019-02-23T19:43:17.075Z,6.89
2019-02-23T19:45:43.330Z,6.64
2019-02-23T19:48:09.494Z,7.56
2019-02-23T19:50:39.382Z,7.39
2019-02-23T19:53:05.548Z,6.87
2019-02-23T19:55:31.709Z,7.01
2019-02-23T19:57:57.903Z,6.73
2019-02-23T20:00:24.059Z,7.40
2019-02-23T20:02:50.328Z,7.70
2019-02-23T20:05:16.516Z,7.23
2019-02-23T20:07:42.689Z,6.81
2019-02-23T20:10:09.638Z,7.35
2019-02-23T20:12:35.828Z,7.38
2019-02-23T20:15:02.788Z,7.53
2019-02-23T20:17:28.948Z,7.53
2019-02-23T20:19:55.188Z,7.98
2019-02-23T20:22:21.382Z,7.93
2019-02-23T20:24:47.647Z,8.17
2019-02-23T20:27:13.848Z,7.57
2019-02-23T20:29:40.006Z,7.68
2019-02-23T20:32:06.274Z,7.80
2019-02-23T20:34:32.514Z,7.12
2019-02-23T20:36:58.823Z,7.33
2019-02-23T20:39:25.004Z,7.80
2019-02-23T20:41:51.171Z,8.27
2019-02-23T20:44:17.323Z,8.03
2019-02-23T20:46:43.689Z,7.60
2019-02-23T20:49:09.976Z,7.92
2019-02-23T20:51:36.237Z,7.60
2019-02-23T20:54:02.401Z,7.97
2019-02-23T20:56:28.620Z,7.23
2019-02-23T20:58:54.861Z,7.55
2019-02-23T21:01:21.017Z,7.47
2019-02-23T21:03:47.226Z,7.23
2019-02-23T21:06:13.391Z,7.64
2019-02-23T21:08:39.750Z,7.76
2019-02-23T21:11:06.039Z,7.47
2019-02-23T21:13:32.299Z,7.41
2019-02-23T21:15:58.458Z,6.74
2019-02-23T21:18:24.668Z,7.12
2019-02-23T21:20:51.808Z,7.19
2019-02-23T21:23:17.956Z,7.45
2019-02-23T21:25:44.251Z,7.66
2019-02-23T21:28:10.412Z,7.84
2019-02-23T21:30:36.564Z,7.91
2019-02-23T21:33:02.767Z,8.08
2019-02-23T21:35:28.928Z,8.15
2019-02-23T21:37:57.018Z,8.43
2019-02-23T21:40:23.197Z,8.06
2019-02-23T21:42:57.767Z,8.27
2019-02-23T21:45:23.928Z,8.48
2019-02-23T21:47:50.114Z,8.20
2019-02-23T21:50:16.468Z,8.20
2019-02-23T21:52:42.882Z,8.04
2019-02-23T21:55:09.044Z,8.15
2019-02-23T21:57:35.207Z,7.85
2019-02-23T22:00:01.362Z,7.71
2019-02-23T22:02:27.555Z,7.90
2019-02-23T22:04:53.719Z,8.25
2019-02-23T22:07:19.885Z,8.22
2019-02-23T22:09:46.064Z,8.09
2019-02-23T22:12:12.216Z,8.25
2019-02-23T22:14:38.373Z,8.35
2019-02-23T22:17:04.659Z,8.49
2019-02-23T22:19:30.921Z,8.24
2019-02-23T22:21:57.085Z,7.44
2019-02-23T22:24:23.785Z,6.91
2019-02-23T22:26:50.129Z,6.59
2019-02-23T22:29:16.771Z,6.71
2019-02-23T22:31:44.081Z,7.07
2019-02-23T22:34:10.412Z,6.45
2019-02-23T22:36:36.581Z,6.41
2019-02-23T22:39:04.028Z,6.29
2019-02-23T22:41:30.359Z,6.23
2019-02-23T22:43:56.556Z,6.78
2019-02-23T22:46:22.749Z,5.91
2019-02-23T22:48:49.003Z,5.23
2019-02-23T22:51:16.282Z,5.62
2019-02-23T22:53:42.479Z,5.42
2019-02-23T22:56:08.733Z,6.12
2019-02-23T22:58:34.989Z,5.96
2019-02-23T23:01:02.272Z,6.07
2019-02-23T23:03:28.544Z,6.34
2019-02-23T23:05:54.720Z,5.72
2019-02-23T23:08:20.926Z,5.81
2019-02-23T23:10:47.080Z,5.78
2019-02-23T23:13:13.237Z,5.07
2019-02-23T23:15:39.452Z,6.49
2019-02-23T23:18:05.611Z,6.98
2019-02-23T23:20:31.875Z,5.36
2019-02-23T23:22:58.116Z,6.44
2019-02-23T23:25:24.285Z,5.00
2019-02-23T23:27:50.535Z,6.16
2019-02-23T23:30:16.732Z,5.37
2019-02-23T23:32:42.997Z,5.86
2019-02-23T23:35:09.172Z,6.41
2019-02-23T23:37:35.356Z,6.99
2019-02-23T23:40:01.522Z,6.32
2019-02-23T23:42:27.772Z,6.82
2019-02-23T23:44:53.966Z,6.46
2019-02-23T23:47:20.236Z,6.60
2019-02-23T23:49:46.511Z,6.95
2019-02-23T23:52:12.726Z,6.90
2019-02-23T23:54:38.993Z,6.92
2019-02-23T23:57:05.155Z,6.19
2019-02-23T23:59:31.361Z,6.18
